Anthon, Iowa
Current Conditions -  °F | °C
As of 2:52 PM on Saturday 25 Oct 2014 (Local Time) from KSUX Reporting Station
Clear Clear  
Wind Chill: 71°   Ceiling: Unl
Heat Index: 71°   Visibility: 10mi
Dew Point: 33°   Wind: 7mph
Humidity: 25%   Direction: 10°N
Pressure: 30.1"   Gusts: NA
Location:  42.39°N, 95.87°W
Report Text: KSUX 251952Z AUTO 01006KT 10SM CLR 22/01 A3010 RMK AO2 SLP193 T02170006
Loading
Personal Weather Stations






























Interactive Weather Map New forecast layout! Learn more

10-Day Weather Forecast

Advertisements
Track Severe Weather on mobile